Terminal Aerodrome Forecast
Issued by NWS

Home | Current Version | Previous Version | Text Only | Print | Product List | Glossary On
Versions: 1 2 3 4 5 6 7 8 9 10 11 12 13 14 15 16 17 18 19 20 21 22 23 24 25
000
FTUS42 KTAE 221126
TAFECP
TAF
KECP 221126Z 2212/2312 18012G20KT 5SM -TSRA BKN009CB
     FM221700 20025G35KT 4SM TSRA BKN010CB
     FM222100 24020G30KT P6SM BKN030
     FM230200 24014G22KT P6SM SCT100=

USA.gov is the U.S. government's official web portal to all federal, state and local government web resources and services.